Time;durP1;ratioP1;P1;durP2;ratioP2;P2;SDS_P1;SDS_P2;PMS_P1;PMS_P2;Temp;Humidity;BMP_temperature;BMP_pressure;BME280_temperature;BME280_humidity;BME280_pressure;Samples;Min_cycle;Max_cycle;Signal;HPM_P1;HPM_P2
2022/02/21 00:00:58;;;;;;;3.15;1.00;;;7.60;99.90;;;;;;5078436;28;20235;-83
2022/02/21 00:03:27;;;;;;;0.90;0.70;;;7.50;99.90;;;;;;5077876;28;20210;-83
2022/02/21 00:05:54;;;;;;;6.53;0.95;;;7.50;99.90;;;;;;5077772;28;20186;-83
2022/02/21 00:08:20;;;;;;;1.00;0.68;;;7.50;99.90;;;;;;5070428;28;20233;-83
2022/02/21 00:10:48;;;;;;;5.72;1.23;;;7.50;99.90;;;;;;5064258;28;20239;-80
2022/02/21 00:13:16;;;;;;;4.53;1.60;;;7.50;99.90;;;;;;5063851;28;20586;-82
2022/02/21 00:15:43;;;;;;;1.00;0.60;;;7.50;99.90;;;;;;5047305;28;20295;-82
2022/02/21 00:18:10;;;;;;;1.77;0.68;;;7.50;99.90;;;;;;5046061;28;20291;-83
2022/02/21 00:20:37;;;;;;;1.17;0.65;;;7.50;99.90;;;;;;5044573;28;21096;-83
2022/02/21 00:23:05;;;;;;;1.75;0.70;;;7.40;99.90;;;;;;5053935;28;20217;-83
2022/02/21 00:25:33;;;;;;;2.35;0.60;;;7.40;99.90;;;;;;5072241;28;20218;-82
2022/02/21 00:27:59;;;;;;;1.20;0.70;;;7.30;99.90;;;;;;5075948;28;20230;-81
2022/02/21 00:30:28;;;;;;;6.00;1.92;;;7.30;99.90;;;;;;5074208;28;20237;-83
2022/02/21 00:32:55;;;;;;;1.67;0.70;;;7.30;99.90;;;;;;5069123;28;20270;-81
2022/02/21 00:35:22;;;;;;;1.40;0.70;;;7.20;99.90;;;;;;5066061;28;20281;-82
2022/02/21 00:37:49;;;;;;;0.80;0.70;;;7.20;99.90;;;;;;5065092;28;20229;-82
2022/02/21 00:40:15;;;;;;;4.00;1.20;;;7.20;99.90;;;;;;5064276;28;20220;-82
2022/02/21 00:42:43;;;;;;;1.02;0.70;;;7.20;99.90;;;;;;5064350;28;20199;-82
2022/02/21 00:45:10;;;;;;;2.60;1.00;;;7.20;99.90;;;;;;5064279;28;20250;-82
2022/02/21 00:47:40;;;;;;;2.72;0.82;;;7.20;99.90;;;;;;5064090;28;20223;-82
2022/02/21 00:50:09;;;;;;;2.03;0.63;;;7.20;99.90;;;;;;5060652;28;20310;-83
2022/02/21 00:52:36;;;;;;;0.98;0.60;;;7.20;99.90;;;;;;5062376;28;20203;-82
2022/02/21 00:55:03;;;;;;;1.00;0.50;;;7.20;99.90;;;;;;5065087;28;20320;-83
2022/02/21 00:57:30;;;;;;;2.15;1.05;;;7.20;99.90;;;;;;5055567;28;20243;-83
2022/02/21 00:59:57;;;;;;;6.82;0.95;;;7.20;99.90;;;;;;5050059;28;20660;-83
2022/02/21 01:02:24;;;;;;;1.88;0.63;;;7.30;99.90;;;;;;5064162;28;20579;-83
2022/02/21 01:04:52;;;;;;;1.20;0.95;;;7.20;99.90;;;;;;5064304;28;20334;-82
2022/02/21 01:07:19;;;;;;;1.10;0.68;;;7.20;99.90;;;;;;5053640;28;20317;-83
2022/02/21 01:09:46;;;;;;;2.65;0.70;;;7.20;99.90;;;;;;5050836;28;20218;-83
2022/02/21 01:12:14;;;;;;;3.75;1.33;;;7.20;99.90;;;;;;5054065;28;20682;-83
2022/02/21 01:14:41;;;;;;;1.52;0.77;;;7.20;99.90;;;;;;5063455;28;20203;-81
2022/02/21 01:17:08;;;;;;;2.15;0.95;;;7.10;99.90;;;;;;5054439;28;20234;-81
2022/02/21 01:19:35;;;;;;;2.35;1.00;;;7.10;99.90;;;;;;5067198;28;20234;-81
2022/02/21 01:22:05;;;;;;;3.42;1.30;;;7.00;99.90;;;;;;5051016;28;20223;-80
2022/02/21 01:24:32;;;;;;;3.45;1.33;;;7.00;99.90;;;;;;5055791;28;20230;-82
2022/02/21 01:26:59;;;;;;;2.65;1.20;;;7.00;99.90;;;;;;5056736;28;20281;-80
2022/02/21 01:29:26;;;;;;;2.58;1.10;;;6.90;99.90;;;;;;5057781;28;20252;-80
2022/02/21 01:31:54;;;;;;;3.95;0.93;;;6.70;99.90;;;;;;5073924;28;20239;-80
2022/02/21 01:34:21;;;;;;;0.98;0.50;;;6.50;99.90;;;;;;5073200;28;20216;-81
2022/02/21 01:36:48;;;;;;;2.08;0.80;;;6.40;99.90;;;;;;5062195;28;20201;-80
2022/02/21 01:39:16;;;;;;;4.75;2.03;;;6.20;99.90;;;;;;5061408;28;20212;-80
2022/02/21 01:41:43;;;;;;;2.65;1.00;;;6.20;99.90;;;;;;5074986;28;20227;-80
2022/02/21 01:44:12;;;;;;;3.30;1.80;;;6.20;99.90;;;;;;5076633;28;20224;-79
2022/02/21 01:46:40;;;;;;;1.58;1.48;;;6.40;99.90;;;;;;5073558;28;20635;-82
2022/02/21 01:49:08;;;;;;;7.10;4.35;;;6.20;99.90;;;;;;5068665;28;20256;-82
2022/02/21 01:51:36;;;;;;;9.00;1.50;;;6.20;99.90;;;;;;5068208;28;20223;-82
2022/02/21 01:54:06;;;;;;;2.42;1.55;;;6.20;99.90;;;;;;5067771;28;20234;-82
2022/02/21 01:56:35;;;;;;;4.70;1.80;;;6.10;99.90;;;;;;5068277;28;20209;-82
2022/02/21 01:59:02;;;;;;;6.07;1.95;;;6.10;99.90;;;;;;5048538;28;20281;-82
2022/02/21 02:01:29;;;;;;;11.02;2.58;;;6.10;99.90;;;;;;5055883;28;20601;-82
2022/02/21 02:03:55;;;;;;;6.22;2.72;;;6.10;99.90;;;;;;5068026;28;20263;-82
2022/02/21 02:06:23;;;;;;;6.57;1.80;;;6.10;99.90;;;;;;5068379;28;20225;-82
2022/02/21 02:08:50;;;;;;;9.05;2.75;;;6.10;99.90;;;;;;5062312;28;20248;-82
2022/02/21 02:11:18;;;;;;;5.68;2.00;;;5.90;99.90;;;;;;5070884;28;20215;-82
2022/02/21 02:13:50;;;;;;;11.02;3.47;;;6.20;99.90;;;;;;5073740;28;20207;-82
2022/02/21 02:16:17;;;;;;;13.65;2.78;;;6.30;99.90;;;;;;5070166;28;20204;-82
2022/02/21 02:18:44;;;;;;;6.43;2.55;;;6.30;99.90;;;;;;5069507;28;20224;-82
2022/02/21 02:21:15;;;;;;;9.10;2.85;;;6.30;99.90;;;;;;5070448;28;20181;-83
2022/02/21 02:23:45;;;;;;;9.13;3.80;;;6.40;99.90;;;;;;5074126;28;20253;-83
2022/02/21 02:26:12;;;;;;;15.50;4.30;;;6.40;99.90;;;;;;5072239;28;20602;-82
2022/02/21 02:28:38;;;;;;;7.78;2.28;;;6.40;99.90;;;;;;5062022;28;20219;-81
2022/02/21 02:31:05;;;;;;;10.75;2.95;;;6.10;99.90;;;;;;5071812;28;20266;-82
2022/02/21 02:33:33;;;;;;;12.82;2.63;;;6.00;99.90;;;;;;5071919;28;20287;-81
2022/02/21 02:36:00;;;;;;;8.77;2.63;;;5.80;99.90;;;;;;5053766;28;20226;-82
2022/02/21 02:38:27;;;;;;;6.22;2.00;;;5.70;99.90;;;;;;5066965;28;20704;-82
2022/02/21 02:40:56;;;;;;;13.02;3.78;;;5.70;99.90;;;;;;5071163;28;20772;-82
2022/02/21 02:43:23;;;;;;;12.02;3.58;;;5.70;99.90;;;;;;5070912;28;20211;-82
2022/02/21 02:45:50;;;;;;;6.15;2.72;;;5.80;99.90;;;;;;5072339;28;20275;-82
2022/02/21 02:48:16;;;;;;;9.98;4.07;;;5.80;99.90;;;;;;5071635;28;20224;-82
2022/02/21 02:50:43;;;;;;;14.93;2.95;;;5.90;99.90;;;;;;5069433;28;20252;-82
2022/02/21 02:53:10;;;;;;;8.82;2.55;;;5.80;99.90;;;;;;5070532;28;20239;-82
2022/02/21 02:55:37;;;;;;;10.50;4.07;;;5.70;99.90;;;;;;5071307;28;20225;-83
2022/02/21 02:58:36;;;;;;;18.35;3.83;;;5.70;99.90;;;;;;5070087;28;20235;-82
2022/02/21 03:01:03;;;;;;;13.15;3.15;;;5.60;99.90;;;;;;5050063;28;20251;-83
2022/02/21 03:03:30;;;;;;;15.63;3.25;;;5.60;99.90;;;;;;5062697;28;20204;-81
2022/02/21 03:05:57;;;;;;;17.35;3.03;;;5.60;99.90;;;;;;5061094;28;20642;-82
2022/02/21 03:08:24;;;;;;;11.75;4.70;;;5.60;99.90;;;;;;5069579;28;20289;-82
2022/02/21 03:10:51;;;;;;;20.75;5.85;;;5.60;99.90;;;;;;5055976;28;20217;-82
2022/02/21 03:13:18;;;;;;;15.98;3.95;;;5.60;99.90;;;;;;5073744;28;20200;-82
2022/02/21 03:15:46;;;;;;;14.90;3.70;;;5.60;99.90;;;;;;5052795;28;20224;-82
2022/02/21 03:18:14;;;;;;;14.63;3.63;;;5.80;99.90;;;;;;5069376;28;20242;-82
2022/02/21 03:20:41;;;;;;;13.48;3.50;;;5.60;99.90;;;;;;5054786;28;20220;-82
2022/02/21 03:23:08;;;;;;;19.73;3.97;;;5.50;99.90;;;;;;5064726;28;20200;-81
2022/02/21 03:25:35;;;;;;;8.15;1.95;;;5.50;99.90;;;;;;5066063;28;20218;-82
2022/02/21 03:28:02;;;;;;;21.75;4.40;;;5.50;99.90;;;;;;5066210;28;20603;-81
2022/02/21 03:30:29;;;;;;;11.77;2.92;;;5.50;99.90;;;;;;5064411;28;20254;-80
2022/02/21 03:32:57;;;;;;;13.90;3.30;;;5.50;99.90;;;;;;5055755;28;20296;-81
2022/02/21 03:35:24;;;;;;;13.63;3.40;;;5.50;99.90;;;;;;5063559;28;20733;-80
2022/02/21 03:37:51;;;;;;;12.35;3.03;;;5.50;99.90;;;;;;5064410;28;20219;-80
2022/02/21 03:40:18;;;;;;;13.23;3.55;;;5.50;99.90;;;;;;5073493;28;20246;-82
2022/02/21 03:42:45;;;;;;;16.80;3.47;;;5.50;99.90;;;;;;5067138;28;20259;-82
2022/02/21 03:45:11;;;;;;;10.55;2.95;;;5.70;99.90;;;;;;5046778;28;20239;-82
2022/02/21 03:47:38;;;;;;;16.02;6.15;;;5.60;99.90;;;;;;5053712;28;20238;-80
2022/02/21 03:50:08;;;;;;;12.15;3.13;;;5.60;99.90;;;;;;5065092;28;20287;-80
2022/02/21 03:52:35;;;;;;;13.00;3.63;;;5.60;99.90;;;;;;5067423;28;20201;-80
2022/02/21 03:55:02;;;;;;;12.63;4.50;;;5.70;99.90;;;;;;5068871;28;20211;-82
2022/02/21 03:57:29;;;;;;;13.98;3.72;;;5.70;99.90;;;;;;5070828;28;20202;-81
2022/02/21 03:59:56;;;;;;;12.65;3.45;;;5.90;99.90;;;;;;5067964;28;20224;-82
2022/02/21 04:02:22;;;;;;;11.13;3.00;;;5.80;99.90;;;;;;5066480;28;20653;-81
2022/02/21 04:04:49;;;;;;;17.77;4.03;;;5.60;99.90;;;;;;5064755;28;20230;-81
2022/02/21 04:07:18;;;;;;;11.40;2.45;;;5.60;99.90;;;;;;5064069;28;20222;-81
2022/02/21 04:09:45;;;;;;;14.27;2.25;;;5.50;99.90;;;;;;5064504;28;20728;-81
2022/02/21 04:12:12;;;;;;;12.50;2.55;;;5.50;99.90;;;;;;5063422;28;20203;-82
2022/02/21 04:14:39;;;;;;;9.55;3.13;;;5.50;99.90;;;;;;5064520;28;20196;-81
2022/02/21 04:17:06;;;;;;;10.13;3.15;;;5.50;99.90;;;;;;5075937;28;20192;-81
2022/02/21 04:19:33;;;;;;;19.63;4.32;;;5.50;99.90;;;;;;5076193;28;20281;-80
2022/02/21 04:21:59;;;;;;;13.50;3.92;;;5.40;99.90;;;;;;5067515;28;20210;-81
2022/02/21 04:24:28;;;;;;;17.30;3.65;;;5.50;99.90;;;;;;5063476;28;20218;-81
2022/02/21 04:26:54;;;;;;;17.67;4.07;;;5.50;99.90;;;;;;5063288;28;20301;-81
2022/02/21 04:29:21;;;;;;;13.15;3.15;;;5.50;99.90;;;;;;5051627;28;20240;-80
2022/02/21 04:31:48;;;;;;;16.02;3.40;;;5.60;99.90;;;;;;5064921;28;20271;-80
2022/02/21 04:34:15;;;;;;;16.27;3.95;;;5.60;99.90;;;;;;5065016;28;20272;-81
2022/02/21 04:36:42;;;;;;;15.85;3.53;;;5.60;99.90;;;;;;5053511;28;20220;-81
2022/02/21 04:39:09;;;;;;;15.68;3.75;;;5.60;99.90;;;;;;5062963;28;20215;-81
2022/02/21 04:41:38;;;;;;;15.65;3.40;;;5.70;99.90;;;;;;5062959;28;20192;-81
2022/02/21 04:44:05;;;;;;;15.98;5.15;;;5.70;99.90;;;;;;5062792;28;20203;-81
2022/02/21 04:46:32;;;;;;;24.38;6.57;;;5.70;99.90;;;;;;5066544;28;20219;-80
2022/02/21 04:48:59;;;;;;;16.70;4.50;;;5.70;99.90;;;;;;5068173;28;20312;-81
2022/02/21 04:51:26;;;;;;;16.77;4.07;;;5.70;99.90;;;;;;5071487;28;20211;-79
2022/02/21 04:53:53;;;;;;;11.73;4.25;;;5.80;99.90;;;;;;5072872;28;20579;-81
2022/02/21 04:56:20;;;;;;;22.27;4.13;;;5.80;99.90;;;;;;5074130;28;20271;-82
2022/02/21 04:58:48;;;;;;;17.90;4.22;;;5.80;99.90;;;;;;5074395;28;20263;-80
2022/02/21 05:01:15;;;;;;;24.73;4.82;;;5.80;99.90;;;;;;5071564;28;20242;-82
2022/02/21 05:03:41;;;;;;;14.95;3.03;;;5.80;99.90;;;;;;5068656;28;20211;-80
2022/02/21 05:06:10;;;;;;;15.38;2.55;;;5.70;99.90;;;;;;5068025;28;20259;-82
2022/02/21 05:08:37;;;;;;;15.35;3.95;;;5.70;99.90;;;;;;5068210;28;20219;-81
2022/02/21 05:11:05;;;;;;;16.60;5.18;;;5.70;99.90;;;;;;5068685;28;20232;-81
2022/02/21 05:13:32;;;;;;;12.98;3.95;;;5.70;99.90;;;;;;5068375;28;20203;-83
2022/02/21 05:16:00;;;;;;;12.48;3.13;;;5.80;99.90;;;;;;5061044;28;20240;-81
2022/02/21 05:18:27;;;;;;;19.45;5.18;;;5.60;99.90;;;;;;5061034;28;20264;-82
2022/02/21 05:20:54;;;;;;;16.27;4.65;;;5.60;99.90;;;;;;5069028;28;20258;-82
2022/02/21 05:23:21;;;;;;;13.05;4.38;;;5.60;99.90;;;;;;5068636;28;20239;-81
2022/02/21 05:25:48;;;;;;;10.80;3.45;;;5.60;99.90;;;;;;5068220;28;20215;-82
2022/02/21 05:28:15;;;;;;;7.47;3.65;;;5.50;99.90;;;;;;5068516;28;20651;-81
2022/02/21 05:30:42;;;;;;;13.77;2.95;;;5.50;99.90;;;;;;5068384;28;20267;-83
2022/02/21 05:33:13;;;;;;;18.38;3.97;;;5.40;99.90;;;;;;5058968;28;20219;-82
2022/02/21 05:35:40;;;;;;;17.30;3.80;;;5.50;99.90;;;;;;5071472;28;20230;-81
2022/02/21 05:38:07;;;;;;;7.05;3.30;;;5.30;99.90;;;;;;5075840;28;20271;-82
2022/02/21 05:40:34;;;;;;;9.02;3.70;;;5.40;99.90;;;;;;5074277;28;20251;-83
2022/02/21 05:43:01;;;;;;;14.52;3.00;;;5.20;99.90;;;;;;5068445;28;20227;-82
2022/02/21 05:45:28;;;;;;;15.80;3.92;;;5.10;99.90;;;;;;5074391;28;20183;-82
2022/02/21 05:47:55;;;;;;;10.60;3.75;;;5.10;99.90;;;;;;5080443;28;20234;-82
2022/02/21 05:50:23;;;;;;;18.75;3.38;;;5.10;99.90;;;;;;5080272;28;20270;-82
2022/02/21 05:52:50;;;;;;;15.20;4.18;;;5.10;99.90;;;;;;5080491;28;20207;-82
2022/02/21 05:55:17;;;;;;;7.22;2.97;;;5.10;99.90;;;;;;5080292;28;20227;-81
2022/02/21 05:57:45;;;;;;;7.50;2.40;;;5.20;99.90;;;;;;5080461;28;20259;-82
2022/02/21 06:00:13;;;;;;;4.80;2.65;;;5.00;99.90;;;;;;5080337;28;20203;-81
2022/02/21 06:02:40;;;;;;;11.35;2.75;;;4.70;99.90;;;;;;5079640;28;20205;-83
2022/02/21 06:05:08;;;;;;;6.78;2.67;;;4.70;99.90;;;;;;5080305;28;20203;-81
2022/02/21 06:07:36;;;;;;;10.90;2.75;;;4.60;99.90;;;;;;5063139;28;20223;-81
2022/02/21 06:10:04;;;;;;;8.25;2.45;;;4.60;99.90;;;;;;5074161;28;20278;-80
2022/02/21 06:12:31;;;;;;;9.18;2.90;;;4.60;99.90;;;;;;5070132;28;20196;-80
2022/02/21 06:14:58;;;;;;;10.13;2.85;;;4.60;99.90;;;;;;5064168;28;20203;-79
2022/02/21 06:17:25;;;;;;;15.25;4.07;;;4.60;99.90;;;;;;5055990;28;20210;-79
2022/02/21 06:19:52;;;;;;;9.02;2.47;;;4.50;99.90;;;;;;5062377;28;20261;-79
2022/02/21 06:22:20;;;;;;;19.48;5.85;;;4.60;99.90;;;;;;5065168;28;20335;-79
2022/02/21 06:24:48;;;;;;;14.00;2.95;;;4.60;99.90;;;;;;5061745;28;20233;-79
2022/02/21 06:27:15;;;;;;;9.95;2.97;;;4.70;99.90;;;;;;5064239;28;20779;-79
2022/02/21 06:29:42;;;;;;;14.10;3.80;;;4.70;99.90;;;;;;5060141;28;20231;-79
2022/02/21 06:32:10;;;;;;;11.77;4.72;;;4.80;99.90;;;;;;5058972;28;20207;-80
2022/02/21 06:34:37;;;;;;;12.55;4.00;;;4.80;99.90;;;;;;5066624;28;20203;-81
2022/02/21 06:37:06;;;;;;;11.98;3.30;;;4.80;99.90;;;;;;5068626;28;20200;-86
2022/02/21 06:39:33;;;;;;;8.23;3.15;;;4.80;99.90;;;;;;5068829;28;20228;-80
2022/02/21 06:42:01;;;;;;;10.55;3.03;;;4.80;99.90;;;;;;5066738;28;20277;-81
2022/02/21 06:44:34;;;;;;;14.23;3.35;;;4.90;99.90;;;;;;5069068;28;20231;-85
2022/02/21 06:47:01;;;;;;;16.00;4.20;;;5.00;99.90;;;;;;5072667;28;20215;-83
2022/02/21 06:49:28;;;;;;;10.10;3.65;;;5.00;99.90;;;;;;5075571;28;20262;-82
2022/02/21 06:52:18;;;;;;;20.50;4.22;;;4.60;99.90;;;;;;5076008;28;20215;-84
2022/02/21 06:54:52;;;;;;;19.05;3.38;;;4.40;99.90;;;;;;5072047;28;20236;-82
2022/02/21 06:57:20;;;;;;;14.57;3.47;;;4.20;99.90;;;;;;5069238;28;20220;-81
2022/02/21 06:59:47;;;;;;;13.15;3.15;;;4.10;99.90;;;;;;5069261;28;20250;-82
2022/02/21 07:02:19;;;;;;;17.77;4.35;;;4.10;99.90;;;;;;5057337;28;20203;-84
2022/02/21 07:04:46;;;;;;;16.80;3.10;;;4.00;99.90;;;;;;5069476;28;20222;-80
2022/02/21 07:07:13;;;;;;;14.80;3.78;;;4.10;99.90;;;;;;5074371;28;20500;-83
2022/02/21 07:09:40;;;;;;;18.05;3.80;;;4.20;99.90;;;;;;5068268;28;20707;-82
2022/02/21 07:12:08;;;;;;;20.58;4.10;;;4.30;99.90;;;;;;5066309;28;20230;-81
2022/02/21 07:14:36;;;;;;;15.50;4.10;;;4.40;99.90;;;;;;5067980;28;20263;-82
2022/02/21 07:17:03;;;;;;;16.33;3.75;;;4.60;99.90;;;;;;5068891;28;20264;-83
2022/02/21 07:19:30;;;;;;;10.50;3.42;;;4.70;99.90;;;;;;5072477;28;20280;-82
2022/02/21 07:21:57;;;;;;;10.10;3.10;;;4.80;99.90;;;;;;5072298;28;20203;-83
2022/02/21 07:24:24;;;;;;;13.90;4.10;;;4.90;99.90;;;;;;5063660;28;20330;-81
2022/02/21 07:26:51;;;;;;;14.43;2.92;;;4.90;99.90;;;;;;5071562;28;20196;-80
2022/02/21 07:29:18;;;;;;;9.57;3.30;;;5.00;99.90;;;;;;5068515;28;20246;-81
2022/02/21 07:31:46;;;;;;;13.82;3.85;;;5.10;99.90;;;;;;5066879;28;20200;-80
2022/02/21 07:34:13;;;;;;;8.93;3.60;;;5.00;99.90;;;;;;5072074;28;20215;-80
2022/02/21 07:36:40;;;;;;;13.35;3.75;;;5.00;99.90;;;;;;5066407;28;20199;-82
2022/02/21 07:39:06;;;;;;;9.00;3.20;;;5.00;99.90;;;;;;5056317;28;20232;-82
2022/02/21 07:41:33;;;;;;;23.13;6.32;;;4.90;99.90;;;;;;5059798;28;20219;-84
2022/02/21 07:44:00;;;;;;;14.63;5.40;;;4.80;99.90;;;;;;5058445;28;20263;-83
2022/02/21 07:46:27;;;;;;;14.55;5.82;;;4.80;99.90;;;;;;5064855;28;20204;-81
2022/02/21 07:48:56;;;;;;;9.93;3.80;;;4.70;99.90;;;;;;5064690;28;20281;-81
2022/02/21 07:51:23;;;;;;;9.23;3.53;;;4.60;99.90;;;;;;5066105;28;20222;-82
2022/02/21 07:53:49;;;;;;;12.40;3.60;;;4.60;99.90;;;;;;5065559;28;20242;-82
2022/02/21 07:56:16;;;;;;;11.57;3.25;;;4.80;99.90;;;;;;5066297;28;20211;-81
2022/02/21 07:58:44;;;;;;;20.75;4.93;;;4.70;99.90;;;;;;5066658;28;20243;-83
2022/02/21 08:01:14;;;;;;;11.02;2.63;;;4.70;99.90;;;;;;5065835;28;20751;-81
2022/02/21 08:03:41;;;;;;;19.05;3.05;;;4.70;99.90;;;;;;5063594;28;20242;-81
2022/02/21 08:06:10;;;;;;;12.35;3.28;;;4.80;99.90;;;;;;5064854;28;20227;-81
2022/02/21 08:08:38;;;;;;;13.10;3.22;;;4.90;99.90;;;;;;5072911;28;20191;-80
2022/02/21 08:11:05;;;;;;;16.17;2.70;;;4.80;99.90;;;;;;5074597;28;20246;-81
2022/02/21 08:13:32;;;;;;;10.70;3.30;;;4.80;99.90;;;;;;5066756;28;20238;-82
2022/02/21 08:16:02;;;;;;;14.85;3.50;;;4.90;99.90;;;;;;5062040;28;20252;-81
2022/02/21 08:18:29;;;;;;;15.13;5.22;;;4.90;99.90;;;;;;5061964;28;20234;-83
2022/02/21 08:20:56;;;;;;;14.75;3.95;;;4.90;99.90;;;;;;5063805;28;20219;-82
2022/02/21 08:23:24;;;;;;;13.00;3.67;;;5.00;99.90;;;;;;5061628;28;20203;-83
2022/02/21 08:25:51;;;;;;;7.40;3.00;;;5.10;99.90;;;;;;5060089;28;20208;-80
2022/02/21 08:28:18;;;;;;;16.85;4.32;;;5.10;99.90;;;;;;5057262;28;20203;-83
2022/02/21 08:30:45;;;;;;;14.63;3.92;;;5.30;99.90;;;;;;5067846;28;20243;-82
2022/02/21 08:33:12;;;;;;;14.75;3.30;;;5.30;99.90;;;;;;5069796;28;20234;-80
2022/02/21 08:35:39;;;;;;;11.20;3.85;;;5.10;99.90;;;;;;5065844;28;20532;-81
2022/02/21 08:38:06;;;;;;;11.13;3.45;;;5.30;99.90;;;;;;5063600;28;20218;-81
2022/02/21 08:40:34;;;;;;;12.50;3.72;;;5.40;99.90;;;;;;5064317;28;20250;-81
2022/02/21 08:43:01;;;;;;;12.52;3.70;;;5.50;99.90;;;;;;5049851;28;20725;-81
2022/02/21 08:45:28;;;;;;;13.63;4.15;;;5.50;99.90;;;;;;5056638;28;20230;-81
2022/02/21 08:47:56;;;;;;;15.85;3.47;;;5.60;99.90;;;;;;5055773;28;20235;-80
2022/02/21 08:50:23;;;;;;;12.68;3.20;;;5.70;99.90;;;;;;5059830;28;20678;-81
2022/02/21 08:52:49;;;;;;;10.13;3.83;;;5.80;99.90;;;;;;5060326;28;20213;-80
2022/02/21 08:55:18;;;;;;;14.52;5.38;;;6.00;99.90;;;;;;5059076;28;20222;-79
2022/02/21 08:57:47;;;;;;;12.93;3.78;;;6.00;99.90;;;;;;5052008;28;20205;-80
2022/02/21 09:00:15;;;;;;;10.52;2.67;;;6.00;99.90;;;;;;5050743;28;20312;-81
2022/02/21 09:02:44;;;;;;;13.57;4.50;;;6.00;99.90;;;;;;5051865;28;20209;-82
2022/02/21 09:05:11;;;;;;;11.88;3.60;;;6.10;99.90;;;;;;5054402;28;20196;-81
2022/02/21 09:07:38;;;;;;;10.50;4.55;;;6.20;99.90;;;;;;5062165;28;20223;-79
2022/02/21 09:10:06;;;;;;;9.95;4.10;;;6.20;99.90;;;;;;5053305;28;20245;-80
2022/02/21 09:12:33;;;;;;;7.03;3.03;;;6.40;99.90;;;;;;5051082;28;20743;-81
2022/02/21 09:15:02;;;;;;;14.00;3.20;;;6.50;99.90;;;;;;5067986;28;20266;-80
2022/02/21 09:17:30;;;;;;;18.23;4.47;;;6.80;99.90;;;;;;5061863;28;20265;-81
2022/02/21 09:19:56;;;;;;;20.52;4.65;;;6.90;99.90;;;;;;5051405;28;20237;-80
2022/02/21 09:22:24;;;;;;;13.88;3.53;;;6.80;99.90;;;;;;5060258;28;20299;-81
2022/02/21 09:24:51;;;;;;;7.72;3.95;;;6.80;99.90;;;;;;5058990;28;20708;-80
2022/02/21 09:27:18;;;;;;;14.02;3.60;;;7.00;99.90;;;;;;5058808;28;20265;-80
2022/02/21 09:29:45;;;;;;;10.65;3.08;;;6.80;99.90;;;;;;5065804;28;20301;-81
2022/02/21 09:32:14;;;;;;;6.53;3.50;;;6.70;99.90;;;;;;5066620;28;20205;-79
2022/02/21 09:34:41;;;;;;;10.25;4.35;;;6.60;99.90;;;;;;5060653;28;20234;-79
2022/02/21 09:37:08;;;;;;;9.77;3.50;;;6.60;99.90;;;;;;5060209;28;20232;-80
2022/02/21 09:39:35;;;;;;;11.48;3.60;;;6.50;99.90;;;;;;5051977;28;20258;-81
2022/02/21 09:42:02;;;;;;;5.25;2.35;;;6.80;99.90;;;;;;5065523;28;20209;-80
2022/02/21 09:44:29;;;;;;;8.20;3.50;;;6.80;99.90;;;;;;5061980;28;20300;-80
2022/02/21 09:46:57;;;;;;;18.42;4.30;;;6.70;99.90;;;;;;5064106;28;20279;-80
2022/02/21 09:49:28;;;;;;;9.50;3.53;;;6.70;99.90;;;;;;5063544;28;20233;-80
2022/02/21 09:51:56;;;;;;;10.32;2.97;;;6.60;99.90;;;;;;5059360;28;20240;-81
2022/02/21 09:54:24;;;;;;;13.43;3.05;;;6.60;99.90;;;;;;5060673;28;20249;-79
2022/02/21 09:56:52;;;;;;;13.10;3.38;;;6.40;99.90;;;;;;5060420;28;20241;-81
2022/02/21 09:59:19;;;;;;;12.57;3.45;;;6.30;99.90;;;;;;5060727;28;20306;-79
2022/02/21 10:01:46;;;;;;;15.00;3.88;;;6.10;99.90;;;;;;5064382;28;20213;-80
2022/02/21 10:04:21;;;;;;;13.90;3.55;;;6.20;99.90;;;;;;5066944;28;20197;-82
2022/02/21 10:06:52;;;;;;;12.60;3.60;;;6.20;99.90;;;;;;5055983;28;20199;-81
2022/02/21 10:09:19;;;;;;;12.85;3.60;;;6.10;99.90;;;;;;5065314;28;20280;-82
2022/02/21 10:11:48;;;;;;;11.93;3.25;;;6.10;99.90;;;;;;5063279;28;20204;-80
2022/02/21 10:14:17;;;;;;;8.77;2.58;;;6.10;99.90;;;;;;5062761;28;20233;-81
2022/02/21 10:16:46;;;;;;;12.77;3.35;;;6.10;99.90;;;;;;5061085;28;20307;-81
2022/02/21 10:19:20;;;;;;;15.43;3.78;;;6.00;99.90;;;;;;5060538;28;20227;-82
2022/02/21 10:21:49;;;;;;;15.60;4.15;;;6.00;99.90;;;;;;5061132;28;20203;-80
2022/02/21 10:24:17;;;;;;;16.42;4.03;;;6.10;99.90;;;;;;5061848;28;20274;-80
2022/02/21 10:26:44;;;;;;;8.30;2.95;;;6.20;99.90;;;;;;5062821;28;20204;-81
2022/02/21 10:29:12;;;;;;;12.13;2.72;;;6.00;99.90;;;;;;5064434;28;20224;-79
2022/02/21 10:31:39;;;;;;;10.05;3.30;;;5.90;99.90;;;;;;5064105;28;20274;-82
2022/02/21 10:34:08;;;;;;;20.30;4.47;;;5.80;99.90;;;;;;5064600;28;20280;-81
2022/02/21 10:36:37;;;;;;;16.67;4.28;;;5.70;99.90;;;;;;5058796;28;20340;-80
2022/02/21 10:39:07;;;;;;;7.38;2.80;;;5.70;99.90;;;;;;5052288;28;20202;-80
2022/02/21 10:41:41;;;;;;;12.07;3.17;;;5.60;99.90;;;;;;5062706;28;20667;-81
2022/02/21 10:44:30;;;;;;;14.15;3.05;;;5.70;99.90;;;;;;5058573;28;20204;-81
2022/02/21 10:47:15;;;;;;;8.63;2.85;;;5.70;99.90;;;;;;5055636;28;20235;-81
2022/02/21 10:49:48;;;;;;;13.43;5.63;;;5.60;99.90;;;;;;5052326;28;20220;-79
2022/02/21 10:52:17;;;;;;;7.70;3.40;;;5.60;99.90;;;;;;5051844;28;20235;-81
2022/02/21 10:54:44;;;;;;;11.13;3.47;;;5.60;99.90;;;;;;5061715;28;20298;-80
2022/02/21 10:57:14;;;;;;;14.60;4.00;;;5.60;99.90;;;;;;5062834;28;20272;-82
2022/02/21 10:59:41;;;;;;;8.50;3.58;;;5.70;99.90;;;;;;5065481;28;20265;-83
2022/02/21 11:02:10;;;;;;;12.68;4.70;;;5.70;99.90;;;;;;5060318;28;20641;-82
2022/02/21 11:04:39;;;;;;;10.48;3.30;;;5.70;99.90;;;;;;5061787;28;20211;-81
2022/02/21 11:07:06;;;;;;;13.57;4.05;;;5.50;99.90;;;;;;5063565;28;20204;-81
2022/02/21 11:09:34;;;;;;;9.60;2.47;;;5.40;99.90;;;;;;5055010;28;20258;-80
2022/02/21 11:12:04;;;;;;;5.65;2.40;;;5.50;99.90;;;;;;5062083;28;20199;-81
2022/02/21 11:14:33;;;;;;;7.85;3.15;;;5.50;99.90;;;;;;5054341;28;20262;-80
2022/02/21 11:17:09;;;;;;;9.50;3.83;;;5.50;99.90;;;;;;5063027;28;20235;-80
2022/02/21 11:19:36;;;;;;;9.73;2.40;;;5.50;99.90;;;;;;5055678;28;20238;-83
2022/02/21 11:22:03;;;;;;;9.00;3.03;;;5.50;99.90;;;;;;5065109;28;20204;-81
2022/02/21 11:24:33;;;;;;;6.70;2.38;;;5.50;99.90;;;;;;5063222;28;20671;-80
2022/02/21 11:27:28;;;;;;;6.22;2.30;;;5.30;99.90;;;;;;5062357;28;20203;-80
2022/02/21 11:30:05;;;;;;;6.75;2.55;;;5.10;99.90;;;;;;5057090;28;20262;-80
2022/02/21 11:32:32;;;;;;;5.38;2.15;;;4.90;99.90;;;;;;5060633;28;20210;-82
2022/02/21 11:35:14;;;;;;;6.47;2.67;;;4.90;99.90;;;;;;5059028;28;20271;-80
2022/02/21 11:37:41;;;;;;;2.33;2.10;;;4.90;99.90;;;;;;5051956;28;20238;-81
2022/02/21 11:40:08;;;;;;;6.15;2.95;;;4.90;99.90;;;;;;5061701;28;20222;-82
2022/02/21 11:42:38;;;;;;;5.68;2.15;;;5.00;99.90;;;;;;5070541;28;20199;-81
2022/02/21 11:45:22;;;;;;;5.85;1.42;;;4.90;99.90;;;;;;5077620;28;20200;-80
2022/02/21 11:47:51;;;;;;;3.30;1.77;;;5.00;99.90;;;;;;5076534;28;20195;-78
2022/02/21 11:50:26;;;;;;;6.57;2.35;;;4.90;99.90;;;;;;5076914;28;20211;-78
2022/02/21 11:52:55;;;;;;;5.43;3.28;;;4.90;99.90;;;;;;5066546;28;20264;-79
2022/02/21 11:55:43;;;;;;;8.48;2.08;;;4.80;99.90;;;;;;5063478;28;20255;-78
2022/02/21 11:58:36;;;;;;;5.10;2.10;;;4.70;99.90;;;;;;5076209;28;20191;-81
2022/02/21 12:01:21;;;;;;;7.53;2.40;;;4.80;99.90;;;;;;5068646;28;20235;-79
2022/02/21 12:04:17;;;;;;;3.15;2.42;;;4.80;99.90;;;;;;5074931;28;20219;-79
2022/02/21 12:06:58;;;;;;;9.82;3.90;;;4.90;99.90;;;;;;5076176;28;20255;-80
2022/02/21 12:09:26;;;;;;;6.75;2.30;;;4.80;99.90;;;;;;5067780;28;20230;-80
2022/02/21 12:11:54;;;;;;;4.15;2.80;;;4.70;99.90;;;;;;5060250;28;20224;-81
2022/02/21 12:14:22;;;;;;;2.00;1.85;;;4.80;99.90;;;;;;5062682;28;20218;-80
2022/02/21 12:17:07;;;;;;;3.08;2.17;;;4.80;99.90;;;;;;5061291;28;20210;-81
2022/02/21 12:19:50;;;;;;;3.90;2.95;;;4.80;99.90;;;;;;5132456;27;20546;-69
2022/02/21 12:22:18;;;;;;;4.43;2.10;;;4.70;99.90;;;;;;5117734;28;20202;-70
2022/02/21 12:25:09;;;;;;;4.20;2.42;;;4.70;99.90;;;;;;5101681;28;20190;-70
2022/02/21 12:27:37;;;;;;;2.47;2.20;;;4.70;99.90;;;;;;5103764;28;20194;-70
2022/02/21 12:30:04;;;;;;;6.45;3.15;;;4.70;99.90;;;;;;5103227;28;20201;-71
2022/02/21 12:32:31;;;;;;;3.97;2.33;;;4.70;99.90;;;;;;5103206;28;20521;-71
2022/02/21 12:35:00;;;;;;;5.13;2.40;;;4.70;99.90;;;;;;5103597;28;20193;-69
2022/02/21 12:37:35;;;;;;;2.58;2.33;;;4.70;99.90;;;;;;5103724;28;20179;-70
2022/02/21 12:40:05;;;;;;;3.33;2.40;;;4.80;99.90;;;;;;5102521;28;20242;-69
2022/02/21 12:42:32;;;;;;;4.88;2.60;;;4.80;99.90;;;;;;5104812;28;20234;-71
2022/02/21 12:44:59;;;;;;;5.07;3.08;;;4.90;99.90;;;;;;5104040;28;20178;-71
2022/02/21 12:47:26;;;;;;;2.72;1.95;;;4.80;99.90;;;;;;5103687;28;20351;-72
2022/02/21 12:49:54;;;;;;;5.43;2.25;;;4.90;99.90;;;;;;5116244;28;20235;-71
2022/02/21 12:52:22;;;;;;;6.97;2.50;;;4.80;99.90;;;;;;5103400;28;20223;-71
2022/02/21 12:54:52;;;;;;;3.20;2.25;;;4.80;99.90;;;;;;5103379;28;20218;-70
2022/02/21 12:57:20;;;;;;;5.28;2.20;;;4.90;99.90;;;;;;5103419;28;20210;-70